Currently 60°F in San Jacinto, California, USA
60°F
65°F / 51°F
6 mph S
0.11"
Tuesday, May 5, 2026 6:10 PM PDT

San Jacinto, California Weather Summary
Last 36 Hours

Temperature Winds Hourly Humidity Dewpoint
Time Report Norm Report Norm Max Gusts Precip. Rpt. Norm Rpt. Norm Pressure
1Tue 06:10 PM  60.1°F  68°F  6 mph S  5 mph  14 mph  0.00"  59%  55%  45°F  51°F  30.48"
Tue 06:00 PM  60.1°F  69°F  11 mph SW  5 mph  17 mph  0.00"  59%  54%  45°F  51°F  30.48"
Tue 05:00 PM  61.9°F  71°F  8 mph SW  4 mph  16 mph  0.00"  53%  47%  44°F  50°F  30.47"
2Tue 04:00 PM  64.9°F  73°F  9 mph S  4 mph  11 mph  0.00"  51%  45%  46°F  49°F  30.47"
Tue 03:00 PM  62.6°F  73°F  2 mph SE  4 mph  9 mph  0.00"  55%  45%  46°F  49°F  30.49"
Tue 02:00 PM  61.2°F  71°F  2 mph E  2 mph  7 mph  0.00"  57%  47%  45°F  49°F  30.50"
Tue 01:00 PM  59.5°F  69°F  1 mph W  2 mph  8 mph  0.00"  63%  51%  46°F  49°F  30.51"
Tue 12:00 PM  57.7°F  66°F  5 mph N  2 mph  9 mph  0.00"  76%  57%  50°F  50°F  30.52"
Tue 11:00 AM  56.8°F  64°F  1 mph E  1 mph  8 mph  0.00"  78%  63%  50°F  50°F  30.52"
Tue 10:00 AM  55.0°F  60°F  5 mph NW  1 mph  8 mph  0.00"  84%  71%  50°F  50°F  30.50"
Tue 09:00 AM  53.4°F  58°F  calm  1 mph  7 mph  0.02"  91%  77%  51°F  50°F  30.48"
Tue 08:00 AM  52.5°F  55°F  2 mph NE  1 mph  8 mph  0.06"  91%  83%  50°F  50°F  30.47"
Tue 07:00 AM  52.0°F  53°F  3 mph SE  1 mph  3 mph  0.01"  91%  85%  49°F  49°F  30.46"
Tue 06:00 AM  51.6°F  53°F  calm  1 mph  7 mph  0.00"  90%  85%  49°F  48°F  30.45"
Tue 05:00 AM  52.0°F  53°F  4 mph E  1 mph  8 mph  0.00"  88%  84%  48°F  48°F  30.45"
Tue 04:00 AM  51.8°F  54°F  1 mph E  1 mph  7 mph  0.00"  89%  83%  49°F  49°F  30.46"
Tue 03:00 AM  51.6°F  54°F  3 mph SE  1 mph  7 mph  0.00"  89%  83%  48°F  49°F  30.46"
3Tue 02:21 AM  51.4°F  55°F  2 mph E  1 mph  7 mph  ----  89%  82%  48°F  49°F  30.47"
Tue 02:00 AM  51.6°F  55°F  3 mph E  1 mph  5 mph  0.02"  88%  82%  48°F  49°F  30.48"
Tue 01:00 AM  52.9°F  56°F  2 mph W  1 mph  6 mph  0.00"  88%  80%  49°F  50°F  30.50"
Tue 12:01 AM  53.8°F  57°F  2 mph NW  1 mph  6 mph  0.01"  84%  79%  49°F  50°F  30.50"
Mon 11:00 PM  55.9°F  58°F  calm  1 mph  11 mph  0.00"  78%  77%  49°F  50°F  30.50"
Mon 10:00 PM  57.4°F  59°F  6 mph SW  1 mph  13 mph  0.00"  67%  74%  46°F  50°F  30.50"
Mon 09:00 PM  59.2°F  60°F  8 mph SW  1 mph  11 mph  0.00"  64%  71%  47°F  51°F  30.50"
Mon 08:00 PM  60.1°F  63°F  9 mph SW  3 mph  14 mph  0.00"  61%  67%  46°F  51°F  30.48"
Mon 07:00 PM  61.7°F  66°F  6 mph W  3 mph  16 mph  0.00"  56%  58%  45°F  51°F  30.47"
Mon 06:00 PM  64.0°F  70°F  12 mph W  5 mph  20 mph  0.00"  50%  52%  44°F  51°F  30.46"
Mon 05:00 PM  65.7°F  73°F  8 mph W  5 mph  14 mph  0.00"  41%  46%  40°F  50°F  30.46"
Mon 04:00 PM  64.8°F  74°F  9 mph W  4 mph  14 mph  0.00"  45%  43%  42°F  49°F  30.47"
Mon 03:00 PM  64.0°F  74°F  7 mph NW  4 mph  11 mph  0.00"  47%  43%  43°F  49°F  30.49"
Mon 02:00 PM  63.1°F  73°F  1 mph W  2 mph  9 mph  0.00"  50%  45%  43°F  49°F  30.51"
Mon 01:00 PM  61.5°F  71°F  1 mph E  2 mph  11 mph  0.00"  53%  49%  44°F  50°F  30.52"
Mon 12:00 PM  61.5°F  68°F  3 mph SW  2 mph  13 mph  0.00"  55%  55%  45°F  50°F  30.54"
Mon 11:00 AM  60.3°F  65°F  4 mph S  1 mph  7 mph  0.00"  56%  61%  44°F  51°F  30.53"
Mon 10:00 AM  58.3°F  61°F  3 mph SW  1 mph  9 mph  0.00"  64%  69%  46°F  51°F  30.52"
Mon 09:00 AM  57.2°F  58°F  calm  1 mph  8 mph  0.00"  65%  76%  45°F  50°F  30.51"
Mon 08:00 AM  55.9°F  56°F  4 mph W  1 mph  11 mph  0.00"  69%  81%  45°F  50°F  30.51"
Mon 07:00 AM  54.1°F  54°F  calm  1 mph  8 mph  0.00"  73%  84%  45°F  49°F  30.51"

  1. Current weather data. No green row appears if the current weather data is also the high or low for the current day.
  2. High temperature for the current day.
  3. Low temperature for the current day.

The San Jacinto, California weather pages are a service of WeatherCurrents. San Jacinto is located in the heart of the San Jacinto Valley, near Hemet, the Soboba Casino, and at the foot of the San Jacinto Mountains.
Copyright ©Tue May 05 18:10:50 PDT 2026  WeatherCurrents. All rights reserved. - Submit questions and comments - Privacy Policy

This page automatically refreshes every 10 minutes.